createdAt,value
2022-12-27T00:06:30.950Z,15.83
2022-12-27T00:26:42.020Z,15.83
2022-12-27T01:01:48.725Z,15.67
2022-12-27T01:27:41.591Z,13.47
2022-12-27T01:58:05.127Z,11.23
2022-12-27T02:33:23.480Z,11.47
2022-12-27T02:48:21.949Z,10.57
2022-12-27T03:18:58.078Z,11.33
2022-12-27T03:43:59.041Z,2.40
2022-12-27T04:14:30.120Z,0.73
2022-12-27T05:10:27.946Z,2.00
2022-12-27T05:45:37.112Z,2.30
2022-12-27T06:06:18.541Z,2.10
2022-12-27T06:31:55.819Z,2.70
2022-12-27T07:12:33.242Z,2.67
2022-12-27T07:16:55.227Z,2.40
2022-12-27T07:42:15.498Z,2.40
2022-12-27T08:08:02.639Z,3.57
2022-12-27T08:38:39.990Z,3.27
2022-12-27T09:09:01.765Z,3.60
2022-12-27T09:38:56.579Z,3.53
2022-12-27T10:35:05.553Z,4.47
2022-12-27T11:20:26.206Z,4.27
2022-12-27T11:35:59.363Z,5.30
2022-12-27T12:11:02.704Z,4.30
2022-12-27T13:47:44.160Z,7.03
2022-12-27T14:23:24.395Z,7.60
2022-12-27T14:48:42.612Z,8.33
2022-12-27T15:19:04.303Z,7.77
2022-12-27T16:35:25.140Z,7.93
2022-12-27T16:39:47.283Z,6.87
2022-12-27T17:45:42.789Z,7.27
2022-12-27T18:06:30.711Z,6.87
2022-12-27T19:31:18.229Z,6.37
2022-12-27T20:01:40.928Z,6.87
2022-12-27T20:42:14.687Z,7.90
2022-12-27T21:12:02.543Z,7.00
2022-12-27T21:32:46.370Z,6.37
2022-12-27T22:08:30.329Z,6.03
2022-12-27T22:12:48.204Z,6.60
2022-12-27T22:43:20.627Z,7.33
2022-12-27T23:03:59.834Z,6.73
2022-12-27T23:24:07.267Z,7.00
2022-12-27T23:54:29.021Z,6.90
